Capron, Illinois
Current Conditions -  °F | °C
As of 2:45 PM on Thursday 23 Oct 2014 (Local Time) from KJVL Reporting Station
Overcast Overcast  
Wind Chill: 57°   Ceiling: 4700
Heat Index: 57°   Visibility: 10mi
Dew Point: 45°   Wind: 12mph
Humidity: 63%   Direction: 190°S
Pressure: 30.05"   Gusts: NA
Location:  42.4°N, 88.74°W
Report Text: KJVL 231945Z 19010KT 10SM OVC047 14/07 A3005
Loading
Personal Weather Stations






























Interactive Weather Map
Tropical Storm Tracking
New forecast layout! Learn more

10-Day Weather Forecast

Advertisements
Track Severe Weather on mobile